sensor_id;sensor_type;location;lat;lon;timestamp;temperature;humidity
18085;DHT22;9169;44.492;11.372;2024-02-23T00:00:30;17.10;43.70
18085;DHT22;9169;44.492;11.372;2024-02-23T00:02:58;17.10;43.70
18085;DHT22;9169;44.492;11.372;2024-02-23T00:05:27;17.10;43.60
18085;DHT22;9169;44.492;11.372;2024-02-23T00:07:56;17.10;43.60
18085;DHT22;9169;44.492;11.372;2024-02-23T00:10:26;17.10;43.60
18085;DHT22;9169;44.492;11.372;2024-02-23T00:12:54;17.10;43.60
18085;DHT22;9169;44.492;11.372;2024-02-23T00:15:23;17.10;43.60
18085;DHT22;9169;44.492;11.372;2024-02-23T00:17:52;17.10;43.60
18085;DHT22;9169;44.492;11.372;2024-02-23T00:20:20;17.10;43.70
18085;DHT22;9169;44.492;11.372;2024-02-23T00:22:49;17.20;43.80
18085;DHT22;9169;44.492;11.372;2024-02-23T00:25:18;17.20;43.80
18085;DHT22;9169;44.492;11.372;2024-02-23T00:27:48;17.20;43.70
18085;DHT22;9169;44.492;11.372;2024-02-23T00:30:17;17.10;43.60
18085;DHT22;9169;44.492;11.372;2024-02-23T00:32:45;17.20;43.70
18085;DHT22;9169;44.492;11.372;2024-02-23T00:35:15;17.20;43.70
18085;DHT22;9169;44.492;11.372;2024-02-23T00:37:43;17.20;43.60
18085;DHT22;9169;44.492;11.372;2024-02-23T00:40:12;17.20;43.60
18085;DHT22;9169;44.492;11.372;2024-02-23T00:42:41;17.10;43.60
18085;DHT22;9169;44.492;11.372;2024-02-23T00:45:11;17.20;43.70
18085;DHT22;9169;44.492;11.372;2024-02-23T00:47:39;17.20;43.70
18085;DHT22;9169;44.492;11.372;2024-02-23T00:50:09;17.20;43.70
18085;DHT22;9169;44.492;11.372;2024-02-23T00:52:38;17.10;43.70
18085;DHT22;9169;44.492;11.372;2024-02-23T00:55:07;17.10;43.80
18085;DHT22;9169;44.492;11.372;2024-02-23T00:57:36;17.20;43.90
18085;DHT22;9169;44.492;11.372;2024-02-23T01:00:05;17.20;43.90
18085;DHT22;9169;44.492;11.372;2024-02-23T01:02:38;17.10;43.90
18085;DHT22;9169;44.492;11.372;2024-02-23T01:05:07;17.10;43.90
18085;DHT22;9169;44.492;11.372;2024-02-23T01:07:36;17.10;43.90
18085;DHT22;9169;44.492;11.372;2024-02-23T01:10:06;17.10;44.00
18085;DHT22;9169;44.492;11.372;2024-02-23T01:12:35;17.10;44.10
18085;DHT22;9169;44.492;11.372;2024-02-23T01:15:04;17.10;44.10
18085;DHT22;9169;44.492;11.372;2024-02-23T01:17:33;17.10;44.10
18085;DHT22;9169;44.492;11.372;2024-02-23T01:20:03;17.10;44.20
18085;DHT22;9169;44.492;11.372;2024-02-23T01:22:32;17.10;44.20
18085;DHT22;9169;44.492;11.372;2024-02-23T01:25:00;17.10;44.20
18085;DHT22;9169;44.492;11.372;2024-02-23T01:27:29;17.10;44.20
18085;DHT22;9169;44.492;11.372;2024-02-23T01:29:58;17.10;44.20
18085;DHT22;9169;44.492;11.372;2024-02-23T01:32:26;17.10;44.80
18085;DHT22;9169;44.492;11.372;2024-02-23T01:34:55;17.10;44.20
18085;DHT22;9169;44.492;11.372;2024-02-23T01:37:25;17.10;44.20
18085;DHT22;9169;44.492;11.372;2024-02-23T01:39:54;17.10;44.10
18085;DHT22;9169;44.492;11.372;2024-02-23T01:42:22;17.10;44.10
18085;DHT22;9169;44.492;11.372;2024-02-23T01:44:53;17.10;44.10
18085;DHT22;9169;44.492;11.372;2024-02-23T01:47:23;17.10;44.00
18085;DHT22;9169;44.492;11.372;2024-02-23T01:49:53;17.20;44.10
18085;DHT22;9169;44.492;11.372;2024-02-23T01:52:22;17.20;44.10
18085;DHT22;9169;44.492;11.372;2024-02-23T01:54:52;17.20;44.10
18085;DHT22;9169;44.492;11.372;2024-02-23T01:57:22;17.20;44.10
18085;DHT22;9169;44.492;11.372;2024-02-23T01:59:53;17.20;44.00
18085;DHT22;9169;44.492;11.372;2024-02-23T02:02:24;17.20;44.00
18085;DHT22;9169;44.492;11.372;2024-02-23T02:04:53;17.20;44.00
18085;DHT22;9169;44.492;11.372;2024-02-23T02:07:21;17.20;44.00
18085;DHT22;9169;44.492;11.372;2024-02-23T02:09:53;17.20;44.00
18085;DHT22;9169;44.492;11.372;2024-02-23T02:12:28;17.20;44.00
18085;DHT22;9169;44.492;11.372;2024-02-23T02:14:57;17.30;44.10
18085;DHT22;9169;44.492;11.372;2024-02-23T02:17:28;17.20;44.00
18085;DHT22;9169;44.492;11.372;2024-02-23T02:19:59;17.20;44.00
18085;DHT22;9169;44.492;11.372;2024-02-23T02:22:32;17.20;44.00
18085;DHT22;9169;44.492;11.372;2024-02-23T02:25:03;17.30;44.10
18085;DHT22;9169;44.492;11.372;2024-02-23T02:27:31;17.20;44.00
18085;DHT22;9169;44.492;11.372;2024-02-23T02:30:00;17.20;44.00
18085;DHT22;9169;44.492;11.372;2024-02-23T02:32:29;17.20;44.00
18085;DHT22;9169;44.492;11.372;2024-02-23T02:34:59;17.20;44.10
18085;DHT22;9169;44.492;11.372;2024-02-23T02:37:28;17.20;44.70
18085;DHT22;9169;44.492;11.372;2024-02-23T02:39:57;17.20;44.20
18085;DHT22;9169;44.492;11.372;2024-02-23T02:42:26;17.20;44.20
18085;DHT22;9169;44.492;11.372;2024-02-23T02:44:55;17.20;44.30
18085;DHT22;9169;44.492;11.372;2024-02-23T02:47:24;17.30;44.50
18085;DHT22;9169;44.492;11.372;2024-02-23T02:49:53;17.20;44.50
18085;DHT22;9169;44.492;11.372;2024-02-23T02:52:21;17.20;44.60
18085;DHT22;9169;44.492;11.372;2024-02-23T02:54:51;17.20;44.70
18085;DHT22;9169;44.492;11.372;2024-02-23T02:57:20;17.20;44.70
18085;DHT22;9169;44.492;11.372;2024-02-23T02:59:49;17.20;44.70
18085;DHT22;9169;44.492;11.372;2024-02-23T03:02:18;17.20;44.80
18085;DHT22;9169;44.492;11.372;2024-02-23T03:04:47;17.30;44.90
18085;DHT22;9169;44.492;11.372;2024-02-23T03:07:16;17.30;44.90
18085;DHT22;9169;44.492;11.372;2024-02-23T03:09:44;17.30;44.90
18085;DHT22;9169;44.492;11.372;2024-02-23T03:12:13;17.30;44.90
18085;DHT22;9169;44.492;11.372;2024-02-23T03:14:42;17.20;44.80
18085;DHT22;9169;44.492;11.372;2024-02-23T03:17:12;17.20;44.80
18085;DHT22;9169;44.492;11.372;2024-02-23T03:19:40;17.20;44.80
18085;DHT22;9169;44.492;11.372;2024-02-23T03:22:09;17.20;44.90
18085;DHT22;9169;44.492;11.372;2024-02-23T03:24:37;17.20;45.00
18085;DHT22;9169;44.492;11.372;2024-02-23T03:27:06;17.20;45.50
18085;DHT22;9169;44.492;11.372;2024-02-23T03:29:35;17.20;44.90
18085;DHT22;9169;44.492;11.372;2024-02-23T03:32:04;17.20;44.90
18085;DHT22;9169;44.492;11.372;2024-02-23T03:34:35;17.20;44.90
18085;DHT22;9169;44.492;11.372;2024-02-23T03:37:03;17.20;45.00
18085;DHT22;9169;44.492;11.372;2024-02-23T03:39:32;17.20;45.00
18085;DHT22;9169;44.492;11.372;2024-02-23T03:42:01;17.20;45.00
18085;DHT22;9169;44.492;11.372;2024-02-23T03:44:29;17.20;45.00
18085;DHT22;9169;44.492;11.372;2024-02-23T03:46:58;17.20;45.00
18085;DHT22;9169;44.492;11.372;2024-02-23T03:49:27;17.20;45.00
18085;DHT22;9169;44.492;11.372;2024-02-23T03:51:57;17.20;45.10
18085;DHT22;9169;44.492;11.372;2024-02-23T03:54:25;17.20;45.20
18085;DHT22;9169;44.492;11.372;2024-02-23T03:56:54;17.20;45.30
18085;DHT22;9169;44.492;11.372;2024-02-23T03:59:23;17.20;45.40
18085;DHT22;9169;44.492;11.372;2024-02-23T04:01:51;17.20;45.40
18085;DHT22;9169;44.492;11.372;2024-02-23T04:04:20;17.20;45.50
18085;DHT22;9169;44.492;11.372;2024-02-23T04:06:48;17.20;45.50
18085;DHT22;9169;44.492;11.372;2024-02-23T04:09:19;17.20;45.50
18085;DHT22;9169;44.492;11.372;2024-02-23T04:11:48;17.20;45.60
18085;DHT22;9169;44.492;11.372;2024-02-23T04:14:16;17.20;45.70
18085;DHT22;9169;44.492;11.372;2024-02-23T04:16:45;17.10;45.70
18085;DHT22;9169;44.492;11.372;2024-02-23T04:19:14;17.10;45.70
18085;DHT22;9169;44.492;11.372;2024-02-23T04:21:42;17.10;45.70
18085;DHT22;9169;44.492;11.372;2024-02-23T04:24:11;17.20;45.70
18085;DHT22;9169;44.492;11.372;2024-02-23T04:26:41;17.20;45.70
18085;DHT22;9169;44.492;11.372;2024-02-23T04:29:09;17.20;45.70
18085;DHT22;9169;44.492;11.372;2024-02-23T04:31:38;17.20;45.70
18085;DHT22;9169;44.492;11.372;2024-02-23T04:34:07;17.20;45.60
18085;DHT22;9169;44.492;11.372;2024-02-23T04:36:35;17.20;45.50
18085;DHT22;9169;44.492;11.372;2024-02-23T04:39:04;17.20;45.50
18085;DHT22;9169;44.492;11.372;2024-02-23T04:41:32;17.20;45.40
18085;DHT22;9169;44.492;11.372;2024-02-23T04:44:02;17.20;45.50
18085;DHT22;9169;44.492;11.372;2024-02-23T04:46:31;17.20;45.50
18085;DHT22;9169;44.492;11.372;2024-02-23T04:49:01;17.20;45.50
18085;DHT22;9169;44.492;11.372;2024-02-23T04:51:30;17.20;45.60
18085;DHT22;9169;44.492;11.372;2024-02-23T04:53:58;17.20;45.60
18085;DHT22;9169;44.492;11.372;2024-02-23T04:56:27;17.20;45.70
18085;DHT22;9169;44.492;11.372;2024-02-23T04:58:55;17.20;45.70
18085;DHT22;9169;44.492;11.372;2024-02-23T05:01:26;17.20;45.70
18085;DHT22;9169;44.492;11.372;2024-02-23T05:03:54;17.20;45.80
18085;DHT22;9169;44.492;11.372;2024-02-23T05:06:23;17.30;45.90
18085;DHT22;9169;44.492;11.372;2024-02-23T05:08:51;17.20;45.80
18085;DHT22;9169;44.492;11.372;2024-02-23T05:11:20;17.20;45.90
18085;DHT22;9169;44.492;11.372;2024-02-23T05:13:48;17.20;46.00
18085;DHT22;9169;44.492;11.372;2024-02-23T05:16:17;17.20;46.00
18085;DHT22;9169;44.492;11.372;2024-02-23T05:18:47;17.20;46.00
18085;DHT22;9169;44.492;11.372;2024-02-23T05:21:15;17.30;46.10
18085;DHT22;9169;44.492;11.372;2024-02-23T05:23:44;17.30;46.20
18085;DHT22;9169;44.492;11.372;2024-02-23T05:26:13;17.30;46.20
18085;DHT22;9169;44.492;11.372;2024-02-23T05:28:42;17.30;46.20
18085;DHT22;9169;44.492;11.372;2024-02-23T05:31:10;17.30;46.20
18085;DHT22;9169;44.492;11.372;2024-02-23T05:33:39;17.30;46.20
18085;DHT22;9169;44.492;11.372;2024-02-23T05:36:09;17.30;46.30
18085;DHT22;9169;44.492;11.372;2024-02-23T05:38:38;17.30;46.30
18085;DHT22;9169;44.492;11.372;2024-02-23T05:41:11;17.30;46.40
18085;DHT22;9169;44.492;11.372;2024-02-23T05:43:40;17.30;46.60
18085;DHT22;9169;44.492;11.372;2024-02-23T05:46:09;17.30;46.80
18085;DHT22;9169;44.492;11.372;2024-02-23T05:48:37;17.30;47.00
18085;DHT22;9169;44.492;11.372;2024-02-23T05:51:06;17.30;47.00
18085;DHT22;9169;44.492;11.372;2024-02-23T05:53:36;17.30;47.00
18085;DHT22;9169;44.492;11.372;2024-02-23T05:56:04;17.30;47.10
18085;DHT22;9169;44.492;11.372;2024-02-23T05:58:33;17.30;47.10
18085;DHT22;9169;44.492;11.372;2024-02-23T06:01:03;17.30;47.10
18085;DHT22;9169;44.492;11.372;2024-02-23T06:03:32;17.30;47.20
18085;DHT22;9169;44.492;11.372;2024-02-23T06:06:07;17.30;47.30
18085;DHT22;9169;44.492;11.372;2024-02-23T06:08:37;17.30;47.30
18085;DHT22;9169;44.492;11.372;2024-02-23T06:11:06;17.40;47.40
18085;DHT22;9169;44.492;11.372;2024-02-23T06:13:34;17.40;47.40
18085;DHT22;9169;44.492;11.372;2024-02-23T06:16:04;17.40;47.50
18085;DHT22;9169;44.492;11.372;2024-02-23T06:18:32;17.40;47.70
18085;DHT22;9169;44.492;11.372;2024-02-23T06:21:01;17.40;47.80
18085;DHT22;9169;44.492;11.372;2024-02-23T06:23:31;17.30;47.80
18085;DHT22;9169;44.492;11.372;2024-02-23T06:26:01;17.30;47.90
18085;DHT22;9169;44.492;11.372;2024-02-23T06:28:30;17.30;47.90
18085;DHT22;9169;44.492;11.372;2024-02-23T06:30:58;17.30;48.00
18085;DHT22;9169;44.492;11.372;2024-02-23T06:33:27;17.30;48.10
18085;DHT22;9169;44.492;11.372;2024-02-23T06:35:56;17.30;48.20
18085;DHT22;9169;44.492;11.372;2024-02-23T06:38:25;17.30;48.30
18085;DHT22;9169;44.492;11.372;2024-02-23T06:40:53;17.30;48.30
18085;DHT22;9169;44.492;11.372;2024-02-23T06:43:24;17.30;48.30
18085;DHT22;9169;44.492;11.372;2024-02-23T06:45:52;17.40;48.40
18085;DHT22;9169;44.492;11.372;2024-02-23T06:48:23;17.40;48.40
18085;DHT22;9169;44.492;11.372;2024-02-23T06:50:55;17.40;48.50
18085;DHT22;9169;44.492;11.372;2024-02-23T06:53:24;17.40;48.50
18085;DHT22;9169;44.492;11.372;2024-02-23T06:55:53;17.40;48.60
18085;DHT22;9169;44.492;11.372;2024-02-23T06:58:23;17.40;48.60
18085;DHT22;9169;44.492;11.372;2024-02-23T07:00:52;17.40;48.80
18085;DHT22;9169;44.492;11.372;2024-02-23T07:03:20;17.50;48.80
18085;DHT22;9169;44.492;11.372;2024-02-23T07:05:49;17.40;48.80
18085;DHT22;9169;44.492;11.372;2024-02-23T07:08:18;17.40;48.80
18085;DHT22;9169;44.492;11.372;2024-02-23T07:10:47;17.40;48.80
18085;DHT22;9169;44.492;11.372;2024-02-23T07:13:15;17.40;48.90
18085;DHT22;9169;44.492;11.372;2024-02-23T07:15:46;17.40;49.00
18085;DHT22;9169;44.492;11.372;2024-02-23T07:18:15;17.50;49.10
18085;DHT22;9169;44.492;11.372;2024-02-23T07:20:43;17.50;49.10
18085;DHT22;9169;44.492;11.372;2024-02-23T07:23:12;17.50;49.10
18085;DHT22;9169;44.492;11.372;2024-02-23T07:25:43;17.50;49.10
18085;DHT22;9169;44.492;11.372;2024-02-23T07:28:12;17.50;49.10
18085;DHT22;9169;44.492;11.372;2024-02-23T07:30:41;17.50;49.10
18085;DHT22;9169;44.492;11.372;2024-02-23T07:33:11;17.50;49.10
18085;DHT22;9169;44.492;11.372;2024-02-23T07:35:40;17.50;49.20
18085;DHT22;9169;44.492;11.372;2024-02-23T07:38:10;17.50;49.40
18085;DHT22;9169;44.492;11.372;2024-02-23T07:40:38;17.50;49.50
18085;DHT22;9169;44.492;11.372;2024-02-23T07:43:07;17.50;49.50
18085;DHT22;9169;44.492;11.372;2024-02-23T07:45:37;17.50;49.60
18085;DHT22;9169;44.492;11.372;2024-02-23T07:48:06;17.60;49.70
18085;DHT22;9169;44.492;11.372;2024-02-23T07:50:37;17.60;49.70
18085;DHT22;9169;44.492;11.372;2024-02-23T07:53:06;17.60;49.90
18085;DHT22;9169;44.492;11.372;2024-02-23T07:55:35;17.60;50.00
18085;DHT22;9169;44.492;11.372;2024-02-23T07:58:03;17.50;50.10
18085;DHT22;9169;44.492;11.372;2024-02-23T08:00:32;17.50;50.20
18085;DHT22;9169;44.492;11.372;2024-02-23T08:03:02;17.50;50.20
18085;DHT22;9169;44.492;11.372;2024-02-23T08:05:31;17.50;50.20
18085;DHT22;9169;44.492;11.372;2024-02-23T08:08:02;17.60;50.40
18085;DHT22;9169;44.492;11.372;2024-02-23T08:10:30;17.60;50.40
18085;DHT22;9169;44.492;11.372;2024-02-23T08:12:59;17.70;50.50
18085;DHT22;9169;44.492;11.372;2024-02-23T08:15:27;17.70;51.00
18085;DHT22;9169;44.492;11.372;2024-02-23T08:17:56;17.80;50.40
18085;DHT22;9169;44.492;11.372;2024-02-23T08:20:25;17.80;50.30
18085;DHT22;9169;44.492;11.372;2024-02-23T08:22:53;17.80;50.00
18085;DHT22;9169;44.492;11.372;2024-02-23T08:25:23;17.90;50.00
18085;DHT22;9169;44.492;11.372;2024-02-23T08:27:52;17.90;49.90
18085;DHT22;9169;44.492;11.372;2024-02-23T08:30:21;18.00;49.90
18085;DHT22;9169;44.492;11.372;2024-02-23T08:32:49;18.10;50.00
18085;DHT22;9169;44.492;11.372;2024-02-23T08:35:18;18.10;49.90
18085;DHT22;9169;44.492;11.372;2024-02-23T08:37:46;18.30;50.00
18085;DHT22;9169;44.492;11.372;2024-02-23T08:40:15;18.40;49.50
18085;DHT22;9169;44.492;11.372;2024-02-23T08:42:45;18.50;49.20
18085;DHT22;9169;44.492;11.372;2024-02-23T08:45:17;18.50;49.00
18085;DHT22;9169;44.492;11.372;2024-02-23T08:47:45;18.50;48.90
18085;DHT22;9169;44.492;11.372;2024-02-23T08:50:14;18.60;48.90
18085;DHT22;9169;44.492;11.372;2024-02-23T08:52:43;18.60;48.60
18085;DHT22;9169;44.492;11.372;2024-02-23T08:55:11;18.60;48.50
18085;DHT22;9169;44.492;11.372;2024-02-23T08:57:40;18.60;48.40
18085;DHT22;9169;44.492;11.372;2024-02-23T09:00:11;18.50;48.30
18085;DHT22;9169;44.492;11.372;2024-02-23T09:02:42;18.50;48.20
18085;DHT22;9169;44.492;11.372;2024-02-23T09:05:11;18.60;48.30
18085;DHT22;9169;44.492;11.372;2024-02-23T09:07:39;18.60;48.20
18085;DHT22;9169;44.492;11.372;2024-02-23T09:10:09;18.60;48.20
18085;DHT22;9169;44.492;11.372;2024-02-23T09:12:37;18.50;48.10
18085;DHT22;9169;44.492;11.372;2024-02-23T09:15:07;18.50;48.20
18085;DHT22;9169;44.492;11.372;2024-02-23T09:17:37;18.50;48.20
18085;DHT22;9169;44.492;11.372;2024-02-23T09:20:06;18.50;48.30
18085;DHT22;9169;44.492;11.372;2024-02-23T09:22:35;18.40;48.20
18085;DHT22;9169;44.492;11.372;2024-02-23T09:25:05;18.40;48.20
18085;DHT22;9169;44.492;11.372;2024-02-23T09:27:33;18.30;48.10
18085;DHT22;9169;44.492;11.372;2024-02-23T09:30:04;18.30;48.30
18085;DHT22;9169;44.492;11.372;2024-02-23T09:32:33;18.30;48.30
18085;DHT22;9169;44.492;11.372;2024-02-23T09:35:04;18.30;48.20
18085;DHT22;9169;44.492;11.372;2024-02-23T09:37:33;18.30;48.20
18085;DHT22;9169;44.492;11.372;2024-02-23T09:40:02;18.30;48.20
18085;DHT22;9169;44.492;11.372;2024-02-23T09:42:32;18.30;48.30
18085;DHT22;9169;44.492;11.372;2024-02-23T09:45:01;18.30;48.30
18085;DHT22;9169;44.492;11.372;2024-02-23T09:47:31;18.40;48.40
18085;DHT22;9169;44.492;11.372;2024-02-23T09:50:01;18.40;48.50
18085;DHT22;9169;44.492;11.372;2024-02-23T09:52:33;18.40;48.50
18085;DHT22;9169;44.492;11.372;2024-02-23T09:55:02;18.50;48.60
18085;DHT22;9169;44.492;11.372;2024-02-23T09:57:31;18.40;48.60
18085;DHT22;9169;44.492;11.372;2024-02-23T09:59:59;18.20;48.80
18085;DHT22;9169;44.492;11.372;2024-02-23T10:02:40;18.20;48.90
18085;DHT22;9169;44.492;11.372;2024-02-23T10:05:10;18.10;49.10
18085;DHT22;9169;44.492;11.372;2024-02-23T10:07:41;18.00;49.20
18085;DHT22;9169;44.492;11.372;2024-02-23T10:10:10;17.80;49.50
18085;DHT22;9169;44.492;11.372;2024-02-23T10:12:39;17.70;49.70
18085;DHT22;9169;44.492;11.372;2024-02-23T10:15:08;17.60;49.70
18085;DHT22;9169;44.492;11.372;2024-02-23T10:17:37;17.60;49.90
18085;DHT22;9169;44.492;11.372;2024-02-23T10:20:07;17.50;50.10
18085;DHT22;9169;44.492;11.372;2024-02-23T10:22:37;17.50;50.20
18085;DHT22;9169;44.492;11.372;2024-02-23T10:25:08;17.40;50.20
18085;DHT22;9169;44.492;11.372;2024-02-23T10:27:37;17.30;50.80
18085;DHT22;9169;44.492;11.372;2024-02-23T10:30:06;17.20;50.90
18085;DHT22;9169;44.492;11.372;2024-02-23T10:32:38;17.10;51.00
18085;DHT22;9169;44.492;11.372;2024-02-23T10:35:13;17.00;51.10
18085;DHT22;9169;44.492;11.372;2024-02-23T10:37:43;17.00;51.40
18085;DHT22;9169;44.492;11.372;2024-02-23T10:40:16;16.90;51.40
18085;DHT22;9169;44.492;11.372;2024-02-23T10:42:47;16.80;51.90
18085;DHT22;9169;44.492;11.372;2024-02-23T10:45:19;16.70;52.20
18085;DHT22;9169;44.492;11.372;2024-02-23T10:47:48;16.60;52.50
18085;DHT22;9169;44.492;11.372;2024-02-23T10:50:18;16.50;52.40
18085;DHT22;9169;44.492;11.372;2024-02-23T10:52:47;16.50;52.60
18085;DHT22;9169;44.492;11.372;2024-02-23T10:55:18;16.30;53.30
18085;DHT22;9169;44.492;11.372;2024-02-23T10:57:48;16.30;53.30
18085;DHT22;9169;44.492;11.372;2024-02-23T11:00:21;16.10;53.90
18085;DHT22;9169;44.492;11.372;2024-02-23T11:02:52;16.00;54.00
18085;DHT22;9169;44.492;11.372;2024-02-23T11:05:22;16.00;54.10
18085;DHT22;9169;44.492;11.372;2024-02-23T11:07:55;15.90;54.80
18085;DHT22;9169;44.492;11.372;2024-02-23T11:10:26;15.80;54.80
18085;DHT22;9169;44.492;11.372;2024-02-23T11:12:58;15.70;54.70
18085;DHT22;9169;44.492;11.372;2024-02-23T11:15:29;15.60;54.90
18085;DHT22;9169;44.492;11.372;2024-02-23T11:18:01;15.60;55.40
18085;DHT22;9169;44.492;11.372;2024-02-23T11:20:34;15.50;55.40
18085;DHT22;9169;44.492;11.372;2024-02-23T11:23:13;15.50;55.70
18085;DHT22;9169;44.492;11.372;2024-02-23T11:25:57;15.40;56.00
18085;DHT22;9169;44.492;11.372;2024-02-23T11:28:26;15.40;55.90
18085;DHT22;9169;44.492;11.372;2024-02-23T11:30:55;15.30;56.00
18085;DHT22;9169;44.492;11.372;2024-02-23T11:33:27;15.30;56.20
18085;DHT22;9169;44.492;11.372;2024-02-23T11:36:06;15.20;56.50
18085;DHT22;9169;44.492;11.372;2024-02-23T11:38:35;15.10;56.50
18085;DHT22;9169;44.492;11.372;2024-02-23T11:41:06;15.10;56.60
18085;DHT22;9169;44.492;11.372;2024-02-23T11:43:35;15.10;56.80
18085;DHT22;9169;44.492;11.372;2024-02-23T11:46:04;15.10;56.80
18085;DHT22;9169;44.492;11.372;2024-02-23T11:48:32;15.00;57.10
18085;DHT22;9169;44.492;11.372;2024-02-23T11:51:01;15.00;57.40
18085;DHT22;9169;44.492;11.372;2024-02-23T11:53:30;14.90;57.40
18085;DHT22;9169;44.492;11.372;2024-02-23T11:55:59;14.90;57.50
18085;DHT22;9169;44.492;11.372;2024-02-23T11:58:29;14.90;57.70
18085;DHT22;9169;44.492;11.372;2024-02-23T12:00:57;14.80;57.80
18085;DHT22;9169;44.492;11.372;2024-02-23T12:03:28;14.80;57.90
18085;DHT22;9169;44.492;11.372;2024-02-23T12:05:57;14.80;57.80
18085;DHT22;9169;44.492;11.372;2024-02-23T12:08:26;14.80;57.90
18085;DHT22;9169;44.492;11.372;2024-02-23T12:10:55;14.80;58.00
18085;DHT22;9169;44.492;11.372;2024-02-23T12:13:28;14.80;58.20
18085;DHT22;9169;44.492;11.372;2024-02-23T12:15:57;14.80;58.50
18085;DHT22;9169;44.492;11.372;2024-02-23T12:18:28;14.70;58.40
18085;DHT22;9169;44.492;11.372;2024-02-23T12:21:01;14.70;58.50
18085;DHT22;9169;44.492;11.372;2024-02-23T12:23:39;14.70;58.50
18085;DHT22;9169;44.492;11.372;2024-02-23T12:26:08;14.70;58.50
18085;DHT22;9169;44.492;11.372;2024-02-23T12:28:38;14.60;58.50
18085;DHT22;9169;44.492;11.372;2024-02-23T12:31:07;14.70;58.50
18085;DHT22;9169;44.492;11.372;2024-02-23T12:33:37;14.70;58.70
18085;DHT22;9169;44.492;11.372;2024-02-23T12:36:08;14.70;58.80
18085;DHT22;9169;44.492;11.372;2024-02-23T12:38:37;14.70;58.80
18085;DHT22;9169;44.492;11.372;2024-02-23T12:41:06;14.70;58.70
18085;DHT22;9169;44.492;11.372;2024-02-23T12:43:35;14.70;58.80
18085;DHT22;9169;44.492;11.372;2024-02-23T12:46:06;14.70;58.70
18085;DHT22;9169;44.492;11.372;2024-02-23T12:48:36;14.80;58.80
18085;DHT22;9169;44.492;11.372;2024-02-23T12:51:04;14.80;58.70
18085;DHT22;9169;44.492;11.372;2024-02-23T12:53:34;14.80;59.00
18085;DHT22;9169;44.492;11.372;2024-02-23T12:56:06;14.80;58.90
18085;DHT22;9169;44.492;11.372;2024-02-23T12:58:35;14.80;58.80
18085;DHT22;9169;44.492;11.372;2024-02-23T13:01:06;14.80;58.90
18085;DHT22;9169;44.492;11.372;2024-02-23T13:03:35;14.90;59.00
18085;DHT22;9169;44.492;11.372;2024-02-23T13:06:04;14.90;59.00
18085;DHT22;9169;44.492;11.372;2024-02-23T13:08:34;15.00;59.10
18085;DHT22;9169;44.492;11.372;2024-02-23T13:11:03;15.00;59.20
18085;DHT22;9169;44.492;11.372;2024-02-23T13:13:32;15.00;59.10
18085;DHT22;9169;44.492;11.372;2024-02-23T13:16:00;15.10;59.00
18085;DHT22;9169;44.492;11.372;2024-02-23T13:18:31;15.00;59.00
18085;DHT22;9169;44.492;11.372;2024-02-23T13:21:00;15.00;59.00
18085;DHT22;9169;44.492;11.372;2024-02-23T13:23:29;15.00;59.40
18085;DHT22;9169;44.492;11.372;2024-02-23T13:25:58;15.00;59.00
18085;DHT22;9169;44.492;11.372;2024-02-23T13:28:31;15.00;59.00
18085;DHT22;9169;44.492;11.372;2024-02-23T13:30:59;15.00;59.00
18085;DHT22;9169;44.492;11.372;2024-02-23T13:33:28;15.00;58.90
18085;DHT22;9169;44.492;11.372;2024-02-23T13:35:58;15.00;59.00
18085;DHT22;9169;44.492;11.372;2024-02-23T13:38:27;14.90;58.80
18085;DHT22;9169;44.492;11.372;2024-02-23T13:40:55;14.90;59.00
18085;DHT22;9169;44.492;11.372;2024-02-23T13:43:24;14.90;59.20
18085;DHT22;9169;44.492;11.372;2024-02-23T13:45:52;14.90;59.10
18085;DHT22;9169;44.492;11.372;2024-02-23T13:48:21;14.90;59.20
18085;DHT22;9169;44.492;11.372;2024-02-23T13:50:50;14.90;59.40
18085;DHT22;9169;44.492;11.372;2024-02-23T13:53:20;14.90;59.40
18085;DHT22;9169;44.492;11.372;2024-02-23T13:55:49;15.00;59.40
18085;DHT22;9169;44.492;11.372;2024-02-23T13:58:18;14.90;59.30
18085;DHT22;9169;44.492;11.372;2024-02-23T14:00:47;14.90;59.30
18085;DHT22;9169;44.492;11.372;2024-02-23T14:03:17;14.90;59.50
18085;DHT22;9169;44.492;11.372;2024-02-23T14:05:46;14.90;59.40
18085;DHT22;9169;44.492;11.372;2024-02-23T14:11:05;15.00;59.40
18085;DHT22;9169;44.492;11.372;2024-02-23T14:13:34;15.00;59.40
18085;DHT22;9169;44.492;11.372;2024-02-23T14:16:03;15.10;59.50
18085;DHT22;9169;44.492;11.372;2024-02-23T14:18:32;15.10;59.40
18085;DHT22;9169;44.492;11.372;2024-02-23T14:21:04;15.10;59.00
18085;DHT22;9169;44.492;11.372;2024-02-23T14:23:33;15.10;59.00
18085;DHT22;9169;44.492;11.372;2024-02-23T14:26:02;15.10;58.90
18085;DHT22;9169;44.492;11.372;2024-02-23T14:28:32;15.10;59.00
18085;DHT22;9169;44.492;11.372;2024-02-23T14:31:01;15.10;59.20
18085;DHT22;9169;44.492;11.372;2024-02-23T14:33:29;15.10;59.30
18085;DHT22;9169;44.492;11.372;2024-02-23T14:35:58;15.10;59.30
18085;DHT22;9169;44.492;11.372;2024-02-23T14:38:27;15.10;59.10
18085;DHT22;9169;44.492;11.372;2024-02-23T14:40:55;15.10;59.00
18085;DHT22;9169;44.492;11.372;2024-02-23T14:43:24;15.10;59.00
18085;DHT22;9169;44.492;11.372;2024-02-23T14:45:54;15.10;59.10
18085;DHT22;9169;44.492;11.372;2024-02-23T14:48:23;15.10;59.10
18085;DHT22;9169;44.492;11.372;2024-02-23T14:50:52;15.10;59.10
18085;DHT22;9169;44.492;11.372;2024-02-23T14:53:21;15.10;59.10
18085;DHT22;9169;44.492;11.372;2024-02-23T14:55:50;15.10;59.00
18085;DHT22;9169;44.492;11.372;2024-02-23T14:58:20;15.10;58.90
18085;DHT22;9169;44.492;11.372;2024-02-23T15:00:51;15.20;59.00
18085;DHT22;9169;44.492;11.372;2024-02-23T15:03:21;15.20;58.90
18085;DHT22;9169;44.492;11.372;2024-02-23T15:05:49;15.20;59.40
18085;DHT22;9169;44.492;11.372;2024-02-23T15:08:18;15.20;58.80
18085;DHT22;9169;44.492;11.372;2024-02-23T15:10:47;15.30;58.80
18085;DHT22;9169;44.492;11.372;2024-02-23T15:13:15;15.20;58.70
18085;DHT22;9169;44.492;11.372;2024-02-23T15:15:44;15.20;58.50
18085;DHT22;9169;44.492;11.372;2024-02-23T15:18:12;15.20;58.50
18085;DHT22;9169;44.492;11.372;2024-02-23T15:20:43;15.10;58.60
18085;DHT22;9169;44.492;11.372;2024-02-23T15:23:11;15.10;58.70
18085;DHT22;9169;44.492;11.372;2024-02-23T15:25:40;15.10;58.60
18085;DHT22;9169;44.492;11.372;2024-02-23T15:28:09;15.10;58.70
18085;DHT22;9169;44.492;11.372;2024-02-23T15:30:38;15.20;58.80
18085;DHT22;9169;44.492;11.372;2024-02-23T15:33:07;15.20;59.00
18085;DHT22;9169;44.492;11.372;2024-02-23T15:35:35;15.20;59.00
18085;DHT22;9169;44.492;11.372;2024-02-23T15:38:06;15.20;59.00
18085;DHT22;9169;44.492;11.372;2024-02-23T15:40:34;15.20;59.20
18085;DHT22;9169;44.492;11.372;2024-02-23T15:43:03;15.30;59.20
18085;DHT22;9169;44.492;11.372;2024-02-23T15:45:32;15.30;59.90